LGX29D LFMP-ENCN
Flight info
| Callsign | LGX29D |
|---|---|
| Flight time | N/A |
| Altitude | 36000 |
| Route | SUBIL5N SUBIL DCT RISOR T45 VENAT T330 GILIR DCT EQRAZ V36 AKELU N852 SUTAL DCT MISGO DCT JUIST N873 BAVTA M609 RASVI RASVI2L |
| Aircraft | A320/M-SDE3FGHIRWY/LB1 |
Departure
| Time | 2026-04-16 10:19 |
|---|---|
| Airport | Perpignan-Rivesaltes (Llabanère) Airport (LFMP) |
Arrival
| Time | N/A |
|---|---|
| Airport | Kristiansand Airport (ENCN) |
| Time | Latitude | Longitude | Altitude | Speed | Heading |
|---|---|---|---|---|---|
| 2026-04-16 10:05 | 42.74051 | 2.87013 | 150 ft | 0 kts | 47° |
| 2026-04-16 10:16 | 42.74055 | 2.87025 | 150 ft | 4 kts | 72° |
| 2026-04-16 10:16 | 42.74028 | 2.87090 | 152 ft | 14 kts | 143° |
| 2026-04-16 10:16 | 42.73910 | 2.87194 | 150 ft | 26 kts | 146° |
| 2026-04-16 10:17 | 42.73749 | 2.87326 | 150 ft | 27 kts | 149° |
| 2026-04-16 10:17 | 42.73625 | 2.87436 | 150 ft | 19 kts | 145° |
| 2026-04-16 10:17 | 42.73630 | 2.87570 | 151 ft | 15 kts | 55° |
| 2026-04-16 10:17 | 42.73687 | 2.87616 | 152 ft | 9 kts | 335° |
| 2026-04-16 10:18 | 42.73709 | 2.87597 | 152 ft | 0 kts | 324° |
| 2026-04-16 10:18 | 42.73725 | 2.87581 | 152 ft | 22 kts | 324° |
| 2026-04-16 10:19 | 42.74081 | 2.87278 | 150 ft | 94 kts | 328° |
| 2026-04-16 10:19 | 42.74805 | 2.86668 | 154 ft | 148 kts | 328° |
| 2026-04-16 10:19 | 42.75713 | 2.85921 | 721 ft | 150 kts | 333° |
| 2026-04-16 10:19 | 42.76736 | 2.85608 | 1375 ft | 158 kts | 0° |
| 2026-04-16 10:20 | 42.77873 | 2.85996 | 1724 ft | 187 kts | 27° |
| 2026-04-16 10:20 | 42.78887 | 2.87317 | 1967 ft | 223 kts | 58° |
| 2026-04-16 10:20 | 42.79158 | 2.89509 | 2320 ft | 256 kts | 98° |
| 2026-04-16 10:20 | 42.78482 | 2.91853 | 2914 ft | 274 kts | 118° |
| 2026-04-16 10:21 | 42.77459 | 2.94078 | 3877 ft | 278 kts | 117° |
| 2026-04-16 10:21 | 42.76884 | 2.96541 | 4799 ft | 274 kts | 87° |
| 2026-04-16 10:21 | 42.77111 | 2.99097 | 5717 ft | 272 kts | 74° |
| 2026-04-16 10:21 | 42.77522 | 3.01616 | 6614 ft | 275 kts | 73° |
| 2026-04-16 10:22 | 42.77953 | 3.04176 | 7410 ft | 280 kts | 73° |
| 2026-04-16 10:22 | 42.78394 | 3.06775 | 8192 ft | 285 kts | 73° |
| 2026-04-16 10:22 | 42.78841 | 3.09417 | 9002 ft | 288 kts | 74° |
| 2026-04-16 10:22 | 42.79293 | 3.12105 | 9787 ft | 293 kts | 75° |
| 2026-04-16 10:23 | 42.79748 | 3.14843 | 10461 ft | 302 kts | 75° |
| 2026-04-16 10:23 | 42.80231 | 3.17747 | 10690 ft | 326 kts | 75° |
| 2026-04-16 10:23 | 42.80745 | 3.20859 | 10900 ft | 348 kts | 75° |
| 2026-04-16 10:23 | 42.81282 | 3.24129 | 11083 ft | 357 kts | 75° |
| 2026-04-16 10:24 | 42.81824 | 3.27435 | 11110 ft | 358 kts | 75° |
| 2026-04-16 10:24 | 42.82366 | 3.30733 | 11114 ft | 357 kts | 75° |
| 2026-04-16 10:24 | 42.82912 | 3.34067 | 11537 ft | 362 kts | 75° |
| 2026-04-16 10:24 | 42.83273 | 3.36282 | 12075 ft | 363 kts | 75° |
| 2026-04-16 10:25 | 42.83823 | 3.39660 | 12842 ft | 365 kts | 75° |
| 2026-04-16 10:25 | 42.84373 | 3.43044 | 13559 ft | 368 kts | 75° |
| 2026-04-16 10:25 | 42.84930 | 3.46469 | 14233 ft | 372 kts | 75° |
| 2026-04-16 10:25 | 42.85492 | 3.49929 | 14842 ft | 375 kts | 75° |
| 2026-04-16 10:26 | 42.86057 | 3.53410 | 15440 ft | 379 kts | 75° |
| 2026-04-16 10:26 | 42.86627 | 3.56942 | 16041 ft | 382 kts | 75° |
| 2026-04-16 10:26 | 42.87197 | 3.60491 | 16636 ft | 386 kts | 75° |
| 2026-04-16 10:26 | 42.87771 | 3.64081 | 17220 ft | 389 kts | 76° |
| 2026-04-16 10:27 | 42.88351 | 3.67708 | 17807 ft | 393 kts | 76° |
| 2026-04-16 10:27 | 42.88936 | 3.71355 | 18393 ft | 396 kts | 76° |
| 2026-04-16 10:27 | 42.89527 | 3.75046 | 18911 ft | 400 kts | 76° |
| 2026-04-16 10:27 | 42.90120 | 3.78757 | 19435 ft | 402 kts | 76° |
| 2026-04-16 10:28 | 42.90719 | 3.82500 | 19978 ft | 405 kts | 75° |
| 2026-04-16 10:28 | 42.91320 | 3.86267 | 20523 ft | 407 kts | 75° |
| 2026-04-16 10:28 | 42.91913 | 3.90005 | 21030 ft | 410 kts | 75° |
| 2026-04-16 10:28 | 42.92523 | 3.93871 | 21546 ft | 413 kts | 75° |
| 2026-04-16 10:29 | 42.93118 | 3.97667 | 22026 ft | 416 kts | 76° |
| 2026-04-16 10:29 | 42.93731 | 4.01587 | 22514 ft | 418 kts | 75° |
| 2026-04-16 10:29 | 42.94331 | 4.05426 | 22971 ft | 421 kts | 75° |
| 2026-04-16 10:29 | 42.94943 | 4.09348 | 23434 ft | 424 kts | 76° |
| 2026-04-16 10:30 | 42.95558 | 4.13300 | 23849 ft | 427 kts | 76° |
| 2026-04-16 10:30 | 42.96186 | 4.17323 | 24219 ft | 429 kts | 76° |
| 2026-04-16 10:30 | 42.96798 | 4.21259 | 24572 ft | 432 kts | 76° |
| 2026-04-16 10:30 | 42.97423 | 4.25285 | 24897 ft | 435 kts | 76° |
| 2026-04-16 10:31 | 42.98050 | 4.29330 | 25238 ft | 437 kts | 76° |
| 2026-04-16 10:31 | 42.98679 | 4.33401 | 25571 ft | 439 kts | 76° |
| 2026-04-16 10:31 | 42.99310 | 4.37495 | 25914 ft | 441 kts | 76° |
| 2026-04-16 10:31 | 42.99944 | 4.41608 | 26244 ft | 443 kts | 76° |
| 2026-04-16 10:32 | 43.00575 | 4.45734 | 26550 ft | 446 kts | 76° |
| 2026-04-16 10:32 | 43.01229 | 4.49880 | 26881 ft | 447 kts | 72° |
| 2026-04-16 10:32 | 43.02286 | 4.53861 | 27189 ft | 445 kts | 62° |
| 2026-04-16 10:32 | 43.03872 | 4.57480 | 27501 ft | 443 kts | 50° |
| 2026-04-16 10:33 | 43.05916 | 4.60611 | 27759 ft | 442 kts | 40° |
| 2026-04-16 10:33 | 43.08353 | 4.63171 | 28022 ft | 442 kts | 29° |
| 2026-04-16 10:33 | 43.11088 | 4.65067 | 28296 ft | 440 kts | 19° |
| 2026-04-16 10:33 | 43.13951 | 4.66557 | 28558 ft | 442 kts | 18° |
| 2026-04-16 10:34 | 43.16841 | 4.68055 | 28813 ft | 444 kts | 18° |
| 2026-04-16 10:34 | 43.19742 | 4.69560 | 29065 ft | 446 kts | 18° |
| 2026-04-16 10:34 | 43.22648 | 4.71070 | 29317 ft | 448 kts | 18° |
| 2026-04-16 10:34 | 43.25570 | 4.72591 | 29547 ft | 450 kts | 18° |
| 2026-04-16 10:35 | 43.28497 | 4.74115 | 29785 ft | 452 kts | 18° |
| 2026-04-16 10:35 | 43.31439 | 4.75650 | 30070 ft | 452 kts | 18° |
| 2026-04-16 10:35 | 43.34377 | 4.77183 | 30389 ft | 451 kts | 18° |
| 2026-04-16 10:35 | 43.37301 | 4.78711 | 30750 ft | 447 kts | 18° |
| 2026-04-16 10:36 | 43.40198 | 4.80229 | 31115 ft | 444 kts | 18° |
| 2026-04-16 10:36 | 43.43071 | 4.81736 | 31454 ft | 442 kts | 18° |
| 2026-04-16 10:36 | 43.45937 | 4.83239 | 31782 ft | 440 kts | 18° |
| 2026-04-16 10:36 | 43.48794 | 4.84738 | 32115 ft | 438 kts | 18° |
| 2026-04-16 10:37 | 43.51633 | 4.86225 | 32432 ft | 436 kts | 18° |
| 2026-04-16 10:37 | 43.54465 | 4.87709 | 32767 ft | 434 kts | 19° |
| 2026-04-16 10:37 | 43.57280 | 4.89187 | 33113 ft | 431 kts | 19° |
| 2026-04-16 10:37 | 43.60073 | 4.90656 | 33451 ft | 429 kts | 19° |
| 2026-04-16 10:38 | 43.62862 | 4.92125 | 33788 ft | 427 kts | 19° |
| 2026-04-16 10:38 | 43.65624 | 4.93583 | 34121 ft | 425 kts | 19° |
| 2026-04-16 10:38 | 43.68383 | 4.95038 | 34406 ft | 423 kts | 19° |
| 2026-04-16 10:38 | 43.71135 | 4.96489 | 34604 ft | 425 kts | 18° |
| 2026-04-16 10:39 | 43.73909 | 4.97953 | 34737 ft | 427 kts | 18° |
| 2026-04-16 10:39 | 43.76690 | 4.99426 | 34958 ft | 427 kts | 19° |
| 2026-04-16 10:39 | 43.79464 | 5.00899 | 35201 ft | 427 kts | 19° |
| 2026-04-16 10:39 | 43.82237 | 5.02375 | 35426 ft | 426 kts | 19° |
| 2026-04-16 10:40 | 43.85002 | 5.03844 | 35641 ft | 426 kts | 19° |
| 2026-04-16 10:40 | 43.87772 | 5.05318 | 35852 ft | 425 kts | 19° |
| 2026-04-16 10:40 | 43.90534 | 5.06788 | 36051 ft | 425 kts | 19° |
| 2026-04-16 10:40 | 43.93298 | 5.08261 | 36151 ft | 425 kts | 19° |
| 2026-04-16 10:41 | 43.98785 | 5.11188 | 36158 ft | 425 kts | 19° |
| 2026-04-16 10:41 | 44.04300 | 5.14138 | 36154 ft | 425 kts | 19° |
| 2026-04-16 10:42 | 44.09810 | 5.17094 | 36153 ft | 425 kts | 19° |
| 2026-04-16 10:42 | 44.15320 | 5.20043 | 36149 ft | 422 kts | 18° |
| 2026-04-16 10:43 | 44.20797 | 5.22980 | 36152 ft | 422 kts | 18° |
| 2026-04-16 10:43 | 44.26282 | 5.25935 | 36153 ft | 422 kts | 18° |
| 2026-04-16 10:44 | 44.31755 | 5.28893 | 36153 ft | 422 kts | 18° |
| 2026-04-16 10:44 | 44.37233 | 5.31861 | 36164 ft | 422 kts | 18° |
| 2026-04-16 10:45 | 44.42713 | 5.34835 | 36172 ft | 423 kts | 18° |
| 2026-04-16 10:45 | 44.48212 | 5.37819 | 36160 ft | 424 kts | 18° |
| 2026-04-16 10:46 | 44.53716 | 5.40815 | 36167 ft | 424 kts | 19° |
| 2026-04-16 10:46 | 44.59212 | 5.43817 | 36175 ft | 424 kts | 19° |
| 2026-04-16 10:47 | 44.64698 | 5.46821 | 36182 ft | 424 kts | 19° |
| 2026-04-16 10:47 | 44.70192 | 5.49826 | 36180 ft | 424 kts | 19° |
| 2026-04-16 10:48 | 44.75679 | 5.52838 | 36184 ft | 424 kts | 19° |
| 2026-04-16 10:48 | 44.81177 | 5.55857 | 36181 ft | 424 kts | 19° |
| 2026-04-16 10:49 | 44.86670 | 5.58882 | 36187 ft | 424 kts | 18° |
| 2026-04-16 10:49 | 44.92161 | 5.61911 | 36183 ft | 424 kts | 18° |
| 2026-04-16 10:50 | 44.97634 | 5.64939 | 36193 ft | 425 kts | 18° |
| 2026-04-16 10:50 | 45.03130 | 5.68001 | 36201 ft | 425 kts | 18° |
| 2026-04-16 10:51 | 45.08669 | 5.71082 | 36206 ft | 425 kts | 18° |
| 2026-04-16 10:51 | 45.14180 | 5.74145 | 36213 ft | 425 kts | 18° |
| 2026-04-16 10:52 | 45.19656 | 5.77192 | 36217 ft | 425 kts | 18° |
| 2026-04-16 10:52 | 45.25146 | 5.80264 | 36227 ft | 425 kts | 18° |
| 2026-04-16 10:53 | 45.30650 | 5.83354 | 36228 ft | 425 kts | 18° |
| 2026-04-16 10:53 | 45.36149 | 5.86430 | 36229 ft | 425 kts | 18° |
| 2026-04-16 10:54 | 45.41648 | 5.89521 | 36237 ft | 425 kts | 18° |
| 2026-04-16 10:54 | 45.47149 | 5.92636 | 36246 ft | 425 kts | 18° |
| 2026-04-16 10:55 | 45.52644 | 5.95744 | 36243 ft | 426 kts | 20° |
| 2026-04-16 10:55 | 45.57832 | 5.99924 | 36241 ft | 430 kts | 28° |
| 2026-04-16 10:56 | 45.62919 | 6.04431 | 36247 ft | 430 kts | 28° |
| 2026-04-16 10:56 | 45.68001 | 6.08944 | 36236 ft | 430 kts | 28° |
| 2026-04-16 10:57 | 45.73053 | 6.13444 | 36229 ft | 431 kts | 28° |
| 2026-04-16 10:57 | 45.78138 | 6.17987 | 36236 ft | 431 kts | 28° |
| 2026-04-16 10:58 | 45.83232 | 6.22532 | 36243 ft | 431 kts | 28° |
| 2026-04-16 10:58 | 45.88340 | 6.27098 | 36245 ft | 432 kts | 28° |
| 2026-04-16 10:59 | 45.93445 | 6.31683 | 36242 ft | 433 kts | 28° |
| 2026-04-16 10:59 | 45.98559 | 6.36270 | 36251 ft | 433 kts | 28° |
| 2026-04-16 11:00 | 46.03668 | 6.40854 | 36253 ft | 433 kts | 28° |
| 2026-04-16 11:00 | 46.08780 | 6.45466 | 36260 ft | 433 kts | 28° |
| 2026-04-16 11:01 | 46.13879 | 6.50086 | 36257 ft | 433 kts | 28° |
| 2026-04-16 11:01 | 46.18972 | 6.54716 | 36263 ft | 433 kts | 28° |
| 2026-04-16 11:02 | 46.24102 | 6.59151 | 36247 ft | 429 kts | 20° |
| 2026-04-16 11:02 | 46.29716 | 6.61845 | 36244 ft | 425 kts | 12° |
| 2026-04-16 11:03 | 46.35440 | 6.64212 | 36250 ft | 425 kts | 12° |
| 2026-04-16 11:04 | 46.44035 | 6.66268 | 36254 ft | 416 kts | 352° |
| 2026-04-16 11:04 | 46.49592 | 6.64274 | 36252 ft | 411 kts | 334° |
| 2026-04-16 11:05 | 46.54742 | 6.60660 | 36264 ft | 412 kts | 333° |
| 2026-04-16 11:05 | 46.59899 | 6.57023 | 36258 ft | 412 kts | 333° |
| 2026-04-16 11:06 | 46.65066 | 6.53375 | 36266 ft | 412 kts | 333° |
| 2026-04-16 11:06 | 46.70229 | 6.49715 | 36257 ft | 413 kts | 333° |
| 2026-04-16 11:07 | 46.75390 | 6.46053 | 36255 ft | 413 kts | 333° |
| 2026-04-16 11:07 | 46.80563 | 6.42376 | 36287 ft | 413 kts | 332° |
| 2026-04-16 11:08 | 46.85730 | 6.38693 | 36272 ft | 413 kts | 332° |
| 2026-04-16 11:08 | 46.90895 | 6.34992 | 36276 ft | 413 kts | 332° |
| 2026-04-16 11:09 | 46.96061 | 6.31295 | 36279 ft | 413 kts | 332° |
| 2026-04-16 11:09 | 47.01219 | 6.27588 | 36269 ft | 413 kts | 332° |
| 2026-04-16 11:10 | 47.06571 | 6.24698 | 36280 ft | 417 kts | 347° |
| 2026-04-16 11:10 | 47.11442 | 6.24372 | 36286 ft | 423 kts | 0° |
| 2026-04-16 11:11 | 47.18268 | 6.25029 | 36276 ft | 423 kts | 360° |
| 2026-04-16 11:11 | 47.23185 | 6.25487 | 36296 ft | 423 kts | 359° |
| 2026-04-16 11:12 | 47.29065 | 6.26026 | 36287 ft | 423 kts | 359° |
| 2026-04-16 11:12 | 47.34936 | 6.26576 | 36287 ft | 423 kts | 359° |
| 2026-04-16 11:13 | 47.40818 | 6.27133 | 36283 ft | 423 kts | 359° |
| 2026-04-16 11:13 | 47.46695 | 6.27695 | 36293 ft | 423 kts | 359° |
| 2026-04-16 11:14 | 47.52571 | 6.28248 | 36289 ft | 423 kts | 359° |
| 2026-04-16 11:14 | 47.58452 | 6.28806 | 36287 ft | 423 kts | 359° |
| 2026-04-16 11:15 | 47.64330 | 6.29360 | 36289 ft | 423 kts | 359° |
| 2026-04-16 11:15 | 47.70176 | 6.29908 | 36284 ft | 424 kts | 359° |
| 2026-04-16 11:16 | 47.76066 | 6.30469 | 36283 ft | 424 kts | 359° |
| 2026-04-16 11:16 | 47.81949 | 6.31040 | 36278 ft | 424 kts | 359° |
| 2026-04-16 11:17 | 47.87836 | 6.31616 | 36283 ft | 424 kts | 359° |
| 2026-04-16 11:17 | 47.93733 | 6.32188 | 36275 ft | 424 kts | 359° |
| 2026-04-16 11:18 | 47.99622 | 6.32745 | 36270 ft | 424 kts | 359° |
| 2026-04-16 11:18 | 48.05509 | 6.33309 | 36291 ft | 424 kts | 359° |
| 2026-04-16 11:19 | 48.11395 | 6.33872 | 36282 ft | 424 kts | 358° |
| 2026-04-16 11:19 | 48.17286 | 6.34450 | 36275 ft | 424 kts | 359° |
| 2026-04-16 11:20 | 48.23169 | 6.35020 | 36271 ft | 424 kts | 358° |
| 2026-04-16 11:20 | 48.29065 | 6.35586 | 36290 ft | 424 kts | 358° |
| 2026-04-16 11:21 | 48.34962 | 6.36168 | 36277 ft | 425 kts | 358° |
| 2026-04-16 11:21 | 48.40818 | 6.36742 | 36269 ft | 425 kts | 358° |
| 2026-04-16 11:22 | 48.46718 | 6.37315 | 36269 ft | 425 kts | 358° |